メインページ
METAR-TAF:

METAR-TAF

空港 :

メンドーサ, アルゼンチン

緯度: 32-50S, 経度: 068-47W, 海抜: 705m

現時点の気象観測

当レポートは30分前の16:00(UTC)に作成
南東の風 6kt
気温 20°C
湿度 35%
気圧 1015 hPa
視程10km以上
1,500メートル以下は雲なし、積乱雲なし

METAR: SAME 251600Z 14006KT CAVOK 20/04 Q1015

時間: 13:30 (16:30 UTC)

予報

当レポートは5時間30分前の11:00(UTC)に作成
予報は25日の 11時(UTC)から 26日の 12時(UTC)まで有効
南東の風 5kt
視程10km以上
1,500メートル以下は雲なし、積乱雲なし
25日の 12時(UTC)から 25日の 14時(UTC)まで一時的に
の風 kt
視程: 5000m

TAF: SAME 251100Z 2511/2612 14005KT CAVOK TX24/2520Z TN07/2610Z TEMPO 2512/2514 00000KT 5000 FUHZ NSC

4,000以上の空港の気象観測と天気予報(METAR報とTAF報)

利用可能な観測所は地図上に黄色い丸と赤い丸で示す。

丸の上にカーソルを重ねると観測所名を参照できる。

次にクリックすると気象観測と天気予報を参照できる。

マップの切り替え:黒色「×」印の緑ボタンをクリックして拡大、「-」印の緑ボタンをクリックして縮小、緑色の三角印をクリックして隣りの地図に切り替え


METAR-TAF: